createdAt,value
2023-10-24T00:00:30.385Z,39.97
2023-10-24T00:02:57.342Z,39.83
2023-10-24T00:05:24.284Z,34.83
2023-10-24T00:07:51.882Z,45.03
2023-10-24T00:10:19.118Z,42.78
2023-10-24T00:12:46.048Z,40.75
2023-10-24T00:15:13.166Z,45.42
2023-10-24T00:17:40.282Z,44.72
2023-10-24T00:20:08.336Z,40.80
2023-10-24T00:22:35.351Z,46.50
2023-10-24T00:25:02.365Z,43.03
2023-10-24T00:27:29.311Z,43.55
2023-10-24T00:29:56.224Z,42.72
2023-10-24T00:32:38.561Z,50.20
2023-10-24T00:35:05.844Z,46.00
2023-10-24T00:37:33.589Z,49.15
2023-10-24T00:40:00.517Z,45.47
2023-10-24T00:42:27.440Z,45.00
2023-10-24T00:44:54.314Z,51.13
2023-10-24T00:47:21.415Z,44.35
2023-10-24T00:49:48.404Z,48.92
2023-10-24T00:52:15.579Z,52.08
2023-10-24T00:54:42.616Z,50.05
2023-10-24T00:57:12.500Z,53.53
2023-10-24T00:59:41.098Z,54.88
2023-10-24T01:02:10.583Z,42.70
2023-10-24T01:04:38.427Z,56.25
2023-10-24T01:07:05.422Z,61.28
2023-10-24T01:09:32.675Z,56.45
2023-10-24T01:12:00.246Z,57.00
2023-10-24T01:14:27.340Z,53.95
2023-10-24T01:16:54.860Z,49.72
2023-10-24T01:19:22.278Z,52.78
2023-10-24T01:21:49.312Z,48.25
2023-10-24T01:24:18.134Z,50.55
2023-10-24T01:26:45.851Z,46.90
2023-10-24T01:29:13.067Z,53.42
2023-10-24T01:31:40.037Z,54.90
2023-10-24T01:34:07.016Z,49.10
2023-10-24T01:36:33.913Z,46.80
2023-10-24T01:39:00.931Z,45.15
2023-10-24T01:41:28.023Z,48.33
2023-10-24T01:43:56.856Z,47.22
2023-10-24T01:46:23.944Z,46.47
2023-10-24T01:48:50.958Z,46.33
2023-10-24T01:51:18.300Z,51.78
2023-10-24T01:53:45.246Z,55.13
2023-10-24T01:56:13.857Z,49.40
2023-10-24T01:58:41.381Z,54.50
2023-10-24T02:01:08.825Z,46.88
2023-10-24T02:03:35.887Z,46.53
2023-10-24T02:06:03.377Z,48.47
2023-10-24T02:08:30.327Z,47.15
2023-10-24T02:10:57.197Z,53.78
2023-10-24T02:13:24.115Z,37.38
2023-10-24T02:15:54.730Z,38.10
2023-10-24T02:18:21.781Z,40.42
2023-10-24T02:20:48.703Z,38.67
2023-10-24T02:23:15.614Z,35.88
2023-10-24T02:25:42.945Z,32.03
2023-10-24T02:28:09.900Z,41.72
2023-10-24T02:30:40.485Z,38.28
2023-10-24T02:33:07.512Z,38.28
2023-10-24T02:35:34.617Z,40.83
2023-10-24T02:38:01.613Z,38.45
2023-10-24T02:40:28.622Z,42.75
2023-10-24T02:42:55.557Z,33.78
2023-10-24T02:45:22.582Z,39.00
2023-10-24T02:47:49.625Z,35.78
2023-10-24T02:50:16.808Z,43.13
2023-10-24T02:52:43.818Z,40.53
2023-10-24T02:55:11.024Z,33.92
2023-10-24T02:57:38.204Z,33.38
2023-10-24T03:00:06.893Z,36.80
2023-10-24T03:02:33.954Z,34.05
2023-10-24T03:05:00.961Z,33.35
2023-10-24T03:07:27.968Z,36.00
2023-10-24T03:09:54.864Z,33.25
2023-10-24T03:12:21.773Z,32.20
2023-10-24T03:14:48.670Z,32.05
2023-10-24T03:17:15.635Z,31.65
2023-10-24T03:19:42.633Z,29.17
2023-10-24T03:22:09.613Z,31.25
2023-10-24T03:24:36.505Z,33.25
2023-10-24T03:27:03.859Z,27.80
2023-10-24T03:29:35.607Z,31.60
2023-10-24T03:32:03.767Z,32.63
2023-10-24T03:34:31.050Z,30.35
2023-10-24T03:36:58.077Z,32.60
2023-10-24T03:39:25.566Z,31.90
2023-10-24T03:41:52.577Z,31.30
2023-10-24T03:44:19.492Z,30.33
2023-10-24T03:46:46.529Z,34.75
2023-10-24T03:49:13.968Z,34.90
2023-10-24T03:51:43.544Z,34.65
2023-10-24T03:54:11.037Z,30.83
2023-10-24T03:56:37.979Z,46.65
2023-10-24T03:59:06.170Z,39.03
2023-10-24T04:01:33.091Z,51.97
2023-10-24T04:04:00.071Z,47.05
2023-10-24T04:06:27.026Z,46.40
2023-10-24T04:08:54.024Z,43.72
2023-10-24T04:11:20.927Z,45.17
2023-10-24T04:13:48.241Z,37.45
2023-10-24T04:16:15.404Z,38.05
2023-10-24T04:18:42.504Z,41.50
2023-10-24T04:21:09.451Z,42.17
2023-10-24T04:23:37.019Z,40.10
2023-10-24T04:26:06.988Z,38.15
2023-10-24T04:28:34.146Z,29.60
2023-10-24T04:31:01.503Z,38.78
2023-10-24T04:33:28.754Z,37.47
2023-10-24T04:35:55.824Z,34.42
2023-10-24T04:38:22.895Z,34.78
2023-10-24T04:40:55.415Z,33.67
2023-10-24T04:43:22.339Z,33.10
2023-10-24T04:45:53.539Z,33.47
2023-10-24T04:48:20.526Z,34.95
2023-10-24T04:50:47.418Z,37.25
2023-10-24T04:53:14.368Z,38.17
2023-10-24T04:55:41.956Z,32.88
2023-10-24T04:58:08.983Z,31.67
2023-10-24T05:00:35.865Z,33.55
2023-10-24T05:03:03.712Z,33.67
2023-10-24T05:05:30.700Z,31.10
2023-10-24T05:07:57.703Z,33.40
2023-10-24T05:10:24.820Z,31.15
2023-10-24T05:12:51.712Z,31.30
2023-10-24T05:15:18.656Z,33.53
2023-10-24T05:17:45.712Z,27.25
2023-10-24T05:20:18.060Z,32.22
2023-10-24T05:22:45.124Z,33.08
2023-10-24T05:25:12.085Z,30.85
2023-10-24T05:27:39.705Z,36.65
2023-10-24T05:30:07.571Z,30.98
2023-10-24T05:32:35.604Z,39.35
2023-10-24T05:35:02.728Z,44.92
2023-10-24T05:37:29.695Z,38.15
2023-10-24T05:39:56.673Z,43.42
2023-10-24T05:42:23.589Z,43.40
2023-10-24T05:44:50.466Z,47.35
2023-10-24T05:47:17.341Z,45.17
2023-10-24T05:49:44.590Z,49.08
2023-10-24T05:52:11.605Z,42.25
2023-10-24T05:54:38.792Z,42.80
2023-10-24T05:57:05.899Z,45.20
2023-10-24T05:59:35.124Z,41.10
2023-10-24T06:02:02.149Z,41.00
2023-10-24T06:04:29.106Z,39.53
2023-10-24T06:06:56.344Z,39.58
2023-10-24T06:09:23.236Z,50.50
2023-10-24T06:11:50.178Z,43.80
2023-10-24T06:14:17.078Z,38.47
2023-10-24T06:16:44.010Z,54.72
2023-10-24T06:19:10.955Z,105.47
2023-10-24T06:21:37.944Z,53.70
2023-10-24T06:24:05.403Z,39.80
2023-10-24T06:26:32.459Z,40.53
2023-10-24T06:28:59.510Z,42.50
2023-10-24T06:31:27.736Z,48.05
2023-10-24T06:33:54.801Z,51.55
2023-10-24T06:36:22.392Z,68.55
2023-10-24T06:38:49.384Z,75.90
2023-10-24T06:41:17.541Z,60.75
2023-10-24T06:43:44.514Z,54.30
2023-10-24T06:46:12.097Z,52.72
2023-10-24T06:48:39.096Z,43.97
2023-10-24T06:51:06.233Z,48.67
2023-10-24T06:53:33.147Z,42.05
2023-10-24T06:56:01.544Z,47.88
2023-10-24T06:58:28.971Z,38.85
2023-10-24T07:00:56.466Z,39.75
2023-10-24T07:03:23.729Z,41.33
2023-10-24T07:05:53.363Z,44.03
2023-10-24T07:08:22.227Z,39.97
2023-10-24T07:10:49.998Z,43.40
2023-10-24T07:13:17.159Z,45.53
2023-10-24T07:15:44.088Z,41.00
2023-10-24T07:18:12.205Z,44.35
2023-10-24T07:20:39.680Z,44.53
2023-10-24T07:23:07.633Z,44.22
2023-10-24T07:25:34.940Z,40.40
2023-10-24T07:28:03.147Z,33.88
2023-10-24T07:30:31.153Z,36.45
2023-10-24T07:32:58.586Z,38.95
2023-10-24T07:35:25.652Z,41.50
2023-10-24T07:37:52.579Z,39.92
2023-10-24T07:40:19.664Z,46.80
2023-10-24T07:42:46.782Z,55.15
2023-10-24T07:45:14.873Z,66.60
2023-10-24T07:47:42.006Z,49.13
2023-10-24T07:50:10.618Z,46.55
2023-10-24T07:52:37.962Z,50.17
2023-10-24T07:55:05.599Z,51.00
2023-10-24T07:57:32.563Z,50.30
2023-10-24T07:59:59.522Z,51.50
2023-10-24T08:02:26.804Z,151.05
2023-10-24T08:04:53.788Z,248.05
2023-10-24T08:07:20.804Z,107.13
2023-10-24T08:09:47.916Z,177.10
2023-10-24T08:12:15.047Z,136.90
2023-10-24T08:14:42.219Z,71.50
2023-10-24T08:17:09.408Z,115.55
2023-10-24T08:19:36.479Z,59.08
2023-10-24T08:22:03.779Z,94.95
2023-10-24T08:24:30.772Z,83.60
2023-10-24T08:27:10.640Z,222.75
2023-10-24T08:29:38.756Z,73.32
2023-10-24T08:32:13.085Z,120.53
2023-10-24T08:34:42.363Z,130.23
2023-10-24T08:37:10.118Z,137.70
2023-10-24T08:39:37.165Z,110.50
2023-10-24T08:42:04.884Z,107.60
2023-10-24T08:44:34.654Z,88.22
2023-10-24T08:47:04.129Z,172.35
2023-10-24T08:49:33.166Z,146.77
2023-10-24T08:52:02.775Z,192.02
2023-10-24T08:54:35.472Z,128.45
2023-10-24T08:57:04.146Z,107.93
2023-10-24T08:59:36.473Z,115.10
2023-10-24T09:02:10.202Z,133.02
2023-10-24T09:04:37.358Z,119.63
2023-10-24T09:07:04.807Z,94.10
2023-10-24T09:09:31.718Z,133.70
2023-10-24T09:12:05.228Z,89.63
2023-10-24T09:14:44.870Z,131.85
2023-10-24T09:17:17.623Z,120.00
2023-10-24T09:19:45.303Z,70.13
2023-10-24T09:22:18.092Z,81.70
2023-10-24T09:24:50.622Z,95.82
2023-10-24T09:27:22.648Z,140.20
2023-10-24T09:29:52.983Z,81.20
2023-10-24T09:32:21.754Z,99.22
2023-10-24T09:34:49.965Z,71.63
2023-10-24T09:37:17.782Z,79.80
2023-10-24T09:40:00.659Z,77.72
2023-10-24T09:42:36.120Z,73.07
2023-10-24T09:45:07.419Z,64.70
2023-10-24T09:47:37.266Z,94.15
2023-10-24T09:50:09.139Z,128.68
2023-10-24T09:52:37.548Z,96.47
2023-10-24T09:55:05.478Z,95.10
2023-10-24T09:57:32.500Z,119.22
2023-10-24T10:00:00.629Z,156.40
2023-10-24T10:02:28.927Z,140.55
2023-10-24T10:04:56.473Z,140.02
2023-10-24T10:07:27.161Z,128.85
2023-10-24T10:09:55.856Z,90.18
2023-10-24T10:12:25.014Z,83.68
2023-10-24T10:15:27.019Z,48.90
2023-10-24T10:18:05.083Z,52.30
2023-10-24T10:20:46.425Z,48.72
2023-10-24T10:23:51.571Z,47.13
2023-10-24T10:27:04.508Z,45.88
2023-10-24T10:29:34.321Z,41.38
2023-10-24T10:32:44.232Z,42.88
2023-10-24T10:35:03.458Z,40.55
2023-10-24T10:37:36.973Z,30.55
2023-10-24T10:40:25.704Z,30.83
2023-10-24T10:42:53.120Z,26.50
2023-10-24T10:45:28.682Z,27.55
2023-10-24T10:48:05.910Z,29.10
2023-10-24T10:50:35.591Z,27.80
2023-10-24T10:53:45.422Z,25.85
2023-10-24T10:56:24.328Z,28.20
2023-10-24T10:59:09.424Z,28.50
2023-10-24T11:02:05.564Z,24.40
2023-10-24T11:04:32.710Z,24.42
2023-10-24T11:07:04.633Z,24.33
2023-10-24T11:09:37.051Z,31.20
2023-10-24T11:12:22.177Z,24.92
2023-10-24T11:15:17.877Z,25.33
2023-10-24T11:17:47.255Z,24.48
2023-10-24T11:20:22.463Z,24.92
2023-10-24T11:22:51.845Z,25.27
2023-10-24T11:25:19.116Z,24.88
2023-10-24T11:27:49.454Z,23.23
2023-10-24T11:30:16.931Z,27.35
2023-10-24T11:32:44.891Z,26.95
2023-10-24T11:35:12.389Z,25.27
2023-10-24T11:37:39.409Z,25.42
2023-10-24T11:40:08.176Z,25.38
2023-10-24T11:42:35.148Z,24.45
2023-10-24T11:45:02.379Z,23.00
2023-10-24T11:47:29.394Z,19.08
2023-10-24T11:49:56.943Z,20.52
2023-10-24T11:52:24.973Z,27.65
2023-10-24T11:54:53.786Z,23.27
2023-10-24T11:57:23.406Z,22.58
2023-10-24T11:59:52.090Z,25.05
2023-10-24T12:02:19.100Z,23.45
2023-10-24T12:04:52.753Z,20.90
2023-10-24T12:07:20.677Z,22.17
2023-10-24T12:09:47.596Z,22.15
2023-10-24T12:12:14.959Z,22.90
2023-10-24T12:14:45.304Z,20.65
2023-10-24T12:17:12.647Z,23.02
2023-10-24T12:19:41.121Z,24.65
2023-10-24T12:22:08.566Z,22.27
2023-10-24T12:24:35.519Z,22.45
2023-10-24T12:27:02.514Z,20.23
2023-10-24T12:29:29.530Z,21.67
2023-10-24T12:31:56.556Z,18.65
2023-10-24T12:34:24.326Z,21.88
2023-10-24T12:36:53.254Z,23.02
2023-10-24T12:39:22.493Z,22.90
2023-10-24T12:41:49.667Z,20.40
2023-10-24T12:44:17.190Z,18.48
2023-10-24T12:46:44.159Z,20.50
2023-10-24T12:49:11.389Z,25.35
2023-10-24T12:51:38.341Z,21.15
2023-10-24T12:54:05.363Z,17.95
2023-10-24T12:56:32.679Z,19.70
2023-10-24T12:58:59.687Z,18.77
2023-10-24T13:01:28.759Z,22.92
2023-10-24T13:03:56.046Z,21.10
2023-10-24T13:06:23.514Z,21.35
2023-10-24T13:08:50.433Z,21.63
2023-10-24T13:11:19.302Z,23.20
2023-10-24T13:13:46.687Z,21.55
2023-10-24T13:16:14.111Z,24.42
2023-10-24T13:18:41.043Z,23.45
2023-10-24T13:21:08.005Z,27.38
2023-10-24T13:23:34.945Z,24.08
2023-10-24T13:26:02.002Z,25.20
2023-10-24T13:28:29.027Z,21.88
2023-10-24T13:31:14.354Z,24.08
2023-10-24T13:34:13.904Z,22.75
2023-10-24T13:36:32.536Z,25.48
2023-10-24T13:38:59.806Z,20.92
2023-10-24T13:41:28.909Z,34.92
2023-10-24T13:43:59.978Z,23.05
2023-10-24T13:46:29.299Z,24.42
2023-10-24T13:48:58.550Z,26.48
2023-10-24T13:51:26.248Z,19.05
2023-10-24T13:53:54.088Z,18.98
2023-10-24T13:56:21.292Z,20.42
2023-10-24T13:58:48.283Z,21.40
2023-10-24T14:01:15.232Z,18.67
2023-10-24T14:03:42.267Z,20.15
2023-10-24T14:06:09.949Z,20.90
2023-10-24T14:08:37.110Z,22.35
2023-10-24T14:11:05.289Z,21.52
2023-10-24T14:13:32.336Z,23.52
2023-10-24T14:15:59.505Z,24.15
2023-10-24T14:18:26.716Z,21.02
2023-10-24T14:20:53.637Z,21.02
2023-10-24T14:23:23.316Z,23.38
2023-10-24T14:25:50.263Z,27.25
2023-10-24T14:28:17.544Z,26.15
2023-10-24T14:30:44.491Z,35.15
2023-10-24T14:33:11.447Z,31.30
2023-10-24T14:35:38.518Z,41.75
2023-10-24T14:38:06.341Z,36.83
2023-10-24T14:40:33.913Z,33.50
2023-10-24T14:43:02.027Z,31.40
2023-10-24T14:45:30.098Z,32.20
2023-10-24T14:47:57.114Z,34.08
2023-10-24T14:50:26.244Z,32.65
2023-10-24T14:52:53.333Z,42.33
2023-10-24T14:55:20.441Z,42.10
2023-10-24T14:57:48.681Z,39.35
2023-10-24T15:00:16.352Z,31.52
2023-10-24T15:02:43.785Z,33.28
2023-10-24T15:05:11.197Z,27.13
2023-10-24T15:07:38.226Z,23.83
2023-10-24T15:10:05.849Z,26.40
2023-10-24T15:12:32.764Z,25.33
2023-10-24T15:14:59.862Z,24.65
2023-10-24T15:17:27.053Z,28.33
2023-10-24T15:19:55.574Z,37.10
2023-10-24T15:22:22.551Z,31.80
2023-10-24T15:24:49.645Z,32.40
2023-10-24T15:27:18.506Z,40.13
2023-10-24T15:29:45.535Z,38.92
2023-10-24T15:32:16.319Z,30.38
2023-10-24T15:34:43.866Z,33.50
2023-10-24T15:37:11.119Z,33.63
2023-10-24T15:39:38.447Z,30.80
2023-10-24T15:42:05.913Z,25.35
2023-10-24T15:44:32.899Z,26.77
2023-10-24T15:47:00.023Z,25.02
2023-10-24T15:49:28.371Z,23.80
2023-10-24T15:51:56.362Z,20.88
2023-10-24T15:54:23.252Z,21.15
2023-10-24T15:56:50.154Z,21.15
2023-10-24T15:59:17.284Z,23.45
2023-10-24T16:01:44.940Z,23.17
2023-10-24T16:04:12.127Z,22.92
2023-10-24T16:06:39.093Z,24.20
2023-10-24T16:09:06.148Z,21.92
2023-10-24T16:11:33.121Z,20.77
2023-10-24T16:14:01.319Z,23.10
2023-10-24T16:16:31.838Z,21.70
2023-10-24T16:19:01.816Z,25.60
2023-10-24T16:21:29.209Z,21.92
2023-10-24T16:23:56.151Z,24.65
2023-10-24T16:26:23.077Z,22.15
2023-10-24T16:28:50.220Z,22.40
2023-10-24T16:31:18.059Z,25.30
2023-10-24T16:33:45.599Z,22.80
2023-10-24T16:36:12.567Z,21.38
2023-10-24T16:38:39.598Z,21.60
2023-10-24T16:41:06.587Z,24.58
2023-10-24T16:43:33.499Z,22.80
2023-10-24T16:46:00.689Z,23.13
2023-10-24T16:48:29.138Z,22.42
2023-10-24T16:50:57.227Z,24.50
2023-10-24T16:53:25.228Z,24.67
2023-10-24T16:55:57.248Z,28.77
2023-10-24T16:58:25.807Z,24.55
2023-10-24T17:00:56.148Z,24.70
2023-10-24T17:03:23.691Z,25.65
2023-10-24T17:05:50.840Z,25.38
2023-10-24T17:08:17.870Z,23.65
2023-10-24T17:10:45.161Z,22.02
2023-10-24T17:13:12.159Z,23.02
2023-10-24T17:15:39.844Z,24.88
2023-10-24T17:18:06.968Z,23.60
2023-10-24T17:20:35.564Z,22.65
2023-10-24T17:23:03.214Z,21.38
2023-10-24T17:25:30.902Z,23.33
2023-10-24T17:27:57.957Z,22.42
2023-10-24T17:30:28.500Z,24.42
2023-10-24T17:32:57.674Z,22.75
2023-10-24T17:35:25.045Z,22.48
2023-10-24T17:37:54.983Z,23.45
2023-10-24T17:40:22.148Z,23.70
2023-10-24T17:42:53.828Z,22.75
2023-10-24T17:45:20.810Z,24.55
2023-10-24T17:47:48.449Z,22.30
2023-10-24T17:50:16.376Z,21.60
2023-10-24T17:52:43.535Z,20.20
2023-10-24T17:55:10.534Z,19.55
2023-10-24T17:57:37.471Z,17.10
2023-10-24T18:00:05.194Z,19.35
2023-10-24T18:02:32.267Z,17.05
2023-10-24T18:05:02.192Z,25.92
2023-10-24T18:07:32.623Z,17.05
2023-10-24T18:10:03.823Z,19.67
2023-10-24T18:12:31.134Z,17.30
2023-10-24T18:14:58.071Z,17.95
2023-10-24T18:17:25.043Z,17.75
2023-10-24T18:19:52.022Z,17.00
2023-10-24T18:22:18.952Z,17.67
2023-10-24T18:24:45.875Z,18.50
2023-10-24T18:27:15.878Z,19.20
2023-10-24T18:29:42.840Z,21.55
2023-10-24T18:32:09.914Z,19.75
2023-10-24T18:34:36.830Z,22.92
2023-10-24T18:37:03.872Z,17.98
2023-10-24T18:39:30.868Z,21.45
2023-10-24T18:41:58.267Z,22.75
2023-10-24T18:44:25.241Z,20.83
2023-10-24T18:46:52.192Z,19.10
2023-10-24T18:49:20.180Z,16.77
2023-10-24T18:51:47.218Z,17.05
2023-10-24T18:54:17.074Z,18.63
2023-10-24T18:56:45.088Z,25.92
2023-10-24T18:59:12.880Z,20.25
2023-10-24T19:01:39.855Z,20.25
2023-10-24T19:04:08.310Z,18.58
2023-10-24T19:06:36.298Z,20.30
2023-10-24T19:09:04.612Z,22.23
2023-10-24T19:11:34.528Z,17.75
2023-10-24T19:14:02.498Z,18.55
2023-10-24T19:16:30.084Z,22.30
2023-10-24T19:18:57.838Z,20.70
2023-10-24T19:21:25.248Z,21.25
2023-10-24T19:23:52.588Z,21.67
2023-10-24T19:26:19.970Z,20.27
2023-10-24T19:28:47.105Z,21.52
2023-10-24T19:31:14.887Z,23.90
2023-10-24T19:33:44.108Z,24.30
2023-10-24T19:36:15.682Z,39.05
2023-10-24T19:38:44.443Z,28.58
2023-10-24T19:41:12.296Z,21.40
2023-10-24T19:43:39.714Z,29.08
2023-10-24T19:46:10.125Z,21.35
2023-10-24T19:48:38.721Z,21.85
2023-10-24T19:51:06.998Z,22.60
2023-10-24T19:53:35.423Z,23.67
2023-10-24T19:56:08.803Z,32.35
2023-10-24T19:58:40.336Z,285.13
2023-10-24T20:01:08.415Z,78.47
2023-10-24T20:03:36.582Z,440.55
2023-10-24T20:06:05.459Z,100.03
2023-10-24T20:08:44.359Z,37.72
2023-10-24T20:12:32.855Z,37.22
2023-10-24T20:14:02.466Z,37.20
2023-10-24T20:16:34.255Z,23.20
2023-10-24T20:19:01.592Z,19.38
2023-10-24T20:21:29.033Z,23.08
2023-10-24T20:23:56.620Z,20.88
2023-10-24T20:26:27.034Z,19.35
2023-10-24T20:28:54.548Z,23.02
2023-10-24T20:31:21.569Z,22.65
2023-10-24T20:33:49.477Z,20.23
2023-10-24T20:36:16.475Z,20.92
2023-10-24T20:38:43.374Z,27.52
2023-10-24T20:41:12.184Z,20.60
2023-10-24T20:43:39.190Z,20.33
2023-10-24T20:46:06.192Z,23.23
2023-10-24T20:48:33.479Z,21.95
2023-10-24T20:51:00.441Z,19.67
2023-10-24T20:53:28.735Z,17.48
2023-10-24T20:55:59.394Z,21.95
2023-10-24T20:58:26.618Z,18.13
2023-10-24T21:00:53.664Z,22.90
2023-10-24T21:03:21.007Z,20.95
2023-10-24T21:05:49.163Z,17.02
2023-10-24T21:08:16.114Z,18.15
2023-10-24T21:10:45.475Z,25.08
2023-10-24T21:13:13.026Z,17.90
2023-10-24T21:15:41.213Z,21.42
2023-10-24T21:18:08.261Z,21.95
2023-10-24T21:20:38.408Z,19.58
2023-10-24T21:23:05.447Z,20.95
2023-10-24T21:25:33.259Z,23.23
2023-10-24T21:28:00.308Z,22.42
2023-10-24T21:30:27.241Z,27.27
2023-10-24T21:32:54.223Z,23.10
2023-10-24T21:35:21.162Z,25.02
2023-10-24T21:37:48.155Z,23.23
2023-10-24T21:40:15.329Z,26.52
2023-10-24T21:42:42.719Z,24.52
2023-10-24T21:45:10.188Z,27.67
2023-10-24T21:47:37.092Z,33.08
2023-10-24T21:50:04.408Z,39.28
2023-10-24T21:52:31.326Z,34.42
2023-10-24T21:54:58.220Z,29.30
2023-10-24T21:57:25.148Z,23.50
2023-10-24T21:59:53.478Z,26.23
2023-10-24T22:02:20.559Z,26.02
2023-10-24T22:04:47.476Z,23.70
2023-10-24T22:07:14.372Z,26.48
2023-10-24T22:09:41.705Z,23.88
2023-10-24T22:12:09.363Z,25.73
2023-10-24T22:14:36.809Z,22.27
2023-10-24T22:17:04.504Z,23.83
2023-10-24T22:19:31.545Z,22.48
2023-10-24T22:21:58.485Z,21.98
2023-10-24T22:24:25.422Z,22.58
2023-10-24T22:26:52.323Z,24.92
2023-10-24T22:29:20.017Z,21.85
2023-10-24T22:31:46.964Z,24.20
2023-10-24T22:34:13.954Z,25.35
2023-10-24T22:36:40.885Z,25.48
2023-10-24T22:39:07.840Z,22.42
2023-10-24T22:41:34.759Z,27.15
2023-10-24T22:44:01.637Z,28.27
2023-10-24T22:46:28.601Z,27.05
2023-10-24T22:48:55.653Z,24.10
2023-10-24T22:51:22.627Z,28.85
2023-10-24T22:53:49.522Z,26.45
2023-10-24T22:56:16.537Z,28.33
2023-10-24T22:58:45.221Z,31.08
2023-10-24T23:01:14.013Z,31.38
2023-10-24T23:03:41.380Z,29.85
2023-10-24T23:06:08.511Z,28.23
2023-10-24T23:08:35.398Z,28.65
2023-10-24T23:11:09.514Z,32.17
2023-10-24T23:13:36.445Z,28.63
2023-10-24T23:16:08.440Z,32.33
2023-10-24T23:18:41.644Z,32.13
2023-10-24T23:23:35.596Z,32.63
2023-10-24T23:26:02.527Z,34.35
2023-10-24T23:28:29.580Z,33.90
2023-10-24T23:30:58.799Z,34.53
2023-10-24T23:33:25.915Z,34.50
2023-10-24T23:35:53.655Z,41.92
2023-10-24T23:38:20.573Z,36.45
2023-10-24T23:40:48.219Z,36.30
2023-10-24T23:43:15.920Z,37.80
2023-10-24T23:45:42.873Z,45.88
2023-10-24T23:48:09.831Z,42.30
2023-10-24T23:50:36.740Z,41.63
2023-10-24T23:53:03.625Z,41.42
2023-10-24T23:55:37.059Z,42.22
2023-10-24T23:58:04.986Z,43.53
